weather.gov     
National Weather Service

Terminal Aerodrome Forecast
NWS Homepage
This page is being discontinued on March 12, 2014.
The same data is available at this site. Please update your bookmarks.
Thank you, and we apologize for the inconvenience.
Please send an email to SR-SRH.Webmaster@noaa.gov with any concerns.


Current Version
Previous Version:    01  02  03  04  05  06  07  08  09  10  11  12  13  14  15  16  17  18  19  20  21  22  23  24  25  26  27  28  29  30  
   31  32  33  34  35  36  37  38  39  40  41  42  43  44  45  
[Printable]
444
FTUS42 KKEY 181700
TAFEYW
TAF
KEYW 181739Z 1818/1918 17011KT P6SM FEW025
     FM190000 18006KT P6SM FEW023
     FM190500 19006KT P6SM VCSH SCT020 BKN070 OVC100
     FM190700 27010KT P6SM VCTS FEW020 SCT050CB OVC100 PROB30
      1907/1911 VRB15G25KT 2SM TSRA BKN015CB OVC045
     FM191400 31014KT P6SM BKN018=


U.S. Dept. of Commerce
NOAA National Weather Service
1325 East West Highway
Silver Spring, MD 20910
E-mail: w-nws.webmaster@noaa.gov
Page last modified: May 16, 2007
NATIONAL WEATHER SERVICE: for Safety, for Work, for Fun - FOR LIFE